Time;durP1;ratioP1;P1;durP2;ratioP2;P2;SDS_P1;SDS_P2;PMS_P1;PMS_P2;Temp;Humidity;BMP_temperature;BMP_pressure;BME280_temperature;BME280_humidity;BME280_pressure;Samples;Min_cycle;Max_cycle;Signal;HPM_P1;HPM_P2
2021/05/03 00:01:39;;;;;;;8.45;2.90;;;333.30;2227.20;;;;;;5011189;28;20022;-73
2021/05/03 00:04:05;;;;;;;3.38;2.50;;;333.30;2252.80;;;;;;5014422;28;20101;-73
2021/05/03 00:06:31;;;;;;;2.67;2.47;;;333.30;2227.20;;;;;;5013383;28;20395;-73
2021/05/03 00:08:57;;;;;;;2.55;2.30;;;333.30;2252.80;;;;;;5012343;28;20104;-73
2021/05/03 00:11:22;;;;;;;2.88;2.15;;;333.20;2252.80;;;;;;5012979;28;20040;-73
2021/05/03 00:13:48;;;;;;;3.92;2.40;;;333.30;2252.80;;;;;;5009897;28;20022;-74
2021/05/03 00:16:14;;;;;;;4.60;2.33;;;333.30;2227.20;;;;;;5011722;28;20030;-73
2021/05/03 00:18:40;;;;;;;2.45;2.25;;;333.20;2252.80;;;;;;5012479;28;20026;-73
2021/05/03 00:21:05;;;;;;;2.50;2.30;;;333.10;2278.40;;;;;;5011326;28;20040;-73
2021/05/03 00:23:31;;;;;;;4.47;2.50;;;333.20;2278.40;;;;;;5014992;28;20032;-73
2021/05/03 00:25:57;;;;;;;2.60;2.40;;;333.20;2252.80;;;;;;5004521;28;20472;-73
2021/05/03 00:28:22;;;;;;;2.78;2.38;;;333.10;2252.80;;;;;;5014082;28;20037;-73
2021/05/03 00:30:49;;;;;;;4.28;3.15;;;333.10;2252.80;;;;;;5017510;28;20033;-73
2021/05/03 00:33:14;;;;;;;4.97;2.63;;;333.00;2252.80;;;;;;5016442;28;20085;-73
2021/05/03 00:35:40;;;;;;;2.85;2.50;;;333.10;2278.40;;;;;;4998222;28;20165;-73
2021/05/03 00:38:06;;;;;;;2.67;2.20;;;333.10;2278.40;;;;;;5014672;28;20030;-73
2021/05/03 00:40:32;;;;;;;3.08;2.70;;;333.10;2278.40;;;;;;5016886;28;20053;-73
2021/05/03 00:42:58;;;;;;;2.92;2.45;;;333.10;2304.00;;;;;;5015175;28;20026;-73
2021/05/03 00:45:24;;;;;;;3.22;2.50;;;333.00;2304.00;;;;;;5016495;28;20025;-73
2021/05/03 00:47:50;;;;;;;3.47;2.40;;;333.00;2278.40;;;;;;5016122;28;20402;-74
2021/05/03 00:50:19;;;;;;;3.40;2.78;;;333.00;2278.40;;;;;;4998888;28;20386;-73
2021/05/03 00:52:45;;;;;;;3.70;2.63;;;333.00;2329.60;;;;;;5014774;28;20893;-74
2021/05/03 00:55:12;;;;;;;3.08;2.55;;;333.00;2304.00;;;;;;5008999;28;20020;-73
2021/05/03 00:57:39;;;;;;;2.58;2.38;;;333.00;2304.00;;;;;;5013245;28;20034;-73
2021/05/03 01:00:09;;;;;;;3.95;2.60;;;333.00;2304.00;;;;;;5015634;28;20427;-73
2021/05/03 01:02:35;;;;;;;2.80;2.50;;;333.00;2304.00;;;;;;5016596;28;20033;-74
2021/05/03 01:05:01;;;;;;;5.82;2.70;;;333.20;2329.60;;;;;;5010047;28;20026;-73
2021/05/03 01:07:27;;;;;;;3.50;2.60;;;332.80;2329.60;;;;;;5013827;28;20540;-73
2021/05/03 01:09:52;;;;;;;3.83;2.75;;;332.90;2329.60;;;;;;5015598;28;20032;-73
2021/05/03 01:12:18;;;;;;;6.63;2.80;;;332.80;2329.60;;;;;;4987250;28;20033;-74
2021/05/03 01:14:44;;;;;;;3.60;2.83;;;332.90;2329.60;;;;;;5012681;28;20022;-73
2021/05/03 01:17:10;;;;;;;3.40;2.72;;;332.90;2329.60;;;;;;5011374;28;20044;-73
2021/05/03 01:19:35;;;;;;;2.97;2.60;;;333.00;2329.60;;;;;;5012495;28;20045;-73
2021/05/03 01:22:01;;;;;;;4.78;2.83;;;332.90;2304.00;;;;;;5012079;28;20033;-73
2021/05/03 01:24:27;;;;;;;4.65;2.97;;;332.90;2329.60;;;;;;5013840;28;20032;-73
2021/05/03 01:26:52;;;;;;;3.30;2.63;;;332.80;2329.60;;;;;;5009966;28;20061;-73
2021/05/03 01:29:18;;;;;;;3.33;2.85;;;332.80;2329.60;;;;;;5010521;28;20033;-73
2021/05/03 01:31:49;;;;;;;5.18;2.70;;;332.80;2329.60;;;;;;5010620;28;20488;-73
2021/05/03 01:34:15;;;;;;;4.28;2.70;;;332.80;2329.60;;;;;;5016725;28;20025;-73
2021/05/03 01:36:42;;;;;;;4.07;2.90;;;308.10;2304.00;;;;;;5019182;28;20446;-73
2021/05/03 01:39:15;;;;;;;7.47;2.67;;;308.10;2304.00;;;;;;5007840;28;20021;-73
2021/05/03 01:41:41;;;;;;;3.83;3.05;;;;;;;;;;5015226;28;20037;-73
2021/05/03 01:44:10;;;;;;;4.63;2.85;;;308.10;2304.00;;;;;;5012245;28;20491;-73
2021/05/03 01:46:37;;;;;;;3.03;2.60;;;308.10;2304.00;;;;;;5014316;28;20058;-73
2021/05/03 01:49:05;;;;;;;7.03;2.65;;;308.10;2304.00;;;;;;5013651;28;20387;-73
2021/05/03 01:51:32;;;;;;;3.58;2.75;;;332.80;2329.60;;;;;;5013948;28;20060;-73
2021/05/03 01:53:58;;;;;;;3.33;2.55;;;332.90;2329.60;;;;;;5014236;28;20018;-73
2021/05/03 01:56:26;;;;;;;3.65;2.60;;;332.80;2329.60;;;;;;5009619;28;20054;-72
2021/05/03 01:58:53;;;;;;;4.22;2.65;;;332.80;2329.60;;;;;;5014102;28;20356;-71
2021/05/03 02:01:20;;;;;;;5.13;2.70;;;332.90;2329.60;;;;;;5009117;28;20031;-73
2021/05/03 02:03:46;;;;;;;3.03;2.50;;;333.00;2329.60;;;;;;5015087;28;20033;-74
2021/05/03 02:06:15;;;;;;;2.72;2.50;;;332.90;2329.60;;;;;;5007114;28;20092;-73
2021/05/03 02:08:41;;;;;;;3.00;2.60;;;332.90;2329.60;;;;;;5015214;28;20022;-74
2021/05/03 02:11:08;;;;;;;3.22;2.40;;;332.90;2329.60;;;;;;5014862;28;20040;-74
2021/05/03 02:13:34;;;;;;;3.13;2.50;;;332.80;2329.60;;;;;;5014249;28;20061;-75
2021/05/03 02:16:00;;;;;;;2.85;2.58;;;332.90;2329.60;;;;;;5013570;28;20530;-75
2021/05/03 02:18:26;;;;;;;5.22;2.88;;;332.90;2329.60;;;;;;5013545;28;20065;-75
2021/05/03 02:20:52;;;;;;;4.00;2.88;;;332.90;2329.60;;;;;;5014876;28;20091;-75
2021/05/03 02:23:18;;;;;;;3.33;2.90;;;333.00;2329.60;;;;;;5019938;28;20033;-75
2021/05/03 02:25:46;;;;;;;3.17;2.72;;;332.90;2329.60;;;;;;5009476;28;20386;-74
2021/05/03 02:28:12;;;;;;;6.55;2.92;;;308.10;2304.00;;;;;;4999629;28;20096;-73
2021/05/03 02:30:39;;;;;;;4.35;3.08;;;308.00;2304.00;;;;;;5012335;28;20034;-74
2021/05/03 02:33:06;;;;;;;3.13;2.83;;;308.00;2304.00;;;;;;5005792;28;20485;-74
2021/05/03 02:35:33;;;;;;;3.50;2.97;;;308.00;2304.00;;;;;;5014939;28;20029;-75
2021/05/03 02:38:01;;;;;;;3.95;3.20;;;308.00;2304.00;;;;;;5006515;28;20021;-74
2021/05/03 02:40:28;;;;;;;3.63;3.05;;;308.00;2304.00;;;;;;5014548;28;20037;-74
2021/05/03 02:42:57;;;;;;;3.72;2.92;;;308.00;2304.00;;;;;;5011954;28;20030;-73
2021/05/03 02:45:23;;;;;;;3.95;3.10;;;308.00;2304.00;;;;;;5001525;28;20034;-74
2021/05/03 02:47:49;;;;;;;4.03;2.90;;;308.00;2304.00;;;;;;5002940;28;20053;-74
2021/05/03 02:50:16;;;;;;;5.07;3.10;;;308.10;2304.00;;;;;;5015055;28;20394;-74
2021/05/03 02:52:42;;;;;;;3.80;3.00;;;307.90;2304.00;;;;;;5012904;28;20072;-74
2021/05/03 02:55:10;;;;;;;3.60;3.20;;;308.00;2304.00;;;;;;4994830;28;20030;-74
2021/05/03 02:57:37;;;;;;;3.80;3.28;;;308.00;2304.00;;;;;;5014720;28;20069;-74
2021/05/03 03:00:08;;;;;;;6.82;3.25;;;332.80;2329.60;;;;;;5013725;28;20101;-74
2021/05/03 03:02:34;;;;;;;4.85;3.00;;;332.90;2329.60;;;;;;5004917;28;20075;-74
2021/05/03 03:05:00;;;;;;;6.88;3.22;;;332.90;2329.60;;;;;;5003262;28;20037;-74
2021/05/03 03:07:26;;;;;;;3.85;3.22;;;332.90;2329.60;;;;;;5012835;28;20078;-73
2021/05/03 03:09:52;;;;;;;9.02;3.58;;;332.80;2329.60;;;;;;5009269;28;20049;-74
2021/05/03 03:12:18;;;;;;;3.47;3.00;;;332.80;2329.60;;;;;;5008766;28;20076;-74
2021/05/03 03:14:43;;;;;;;3.80;2.95;;;332.90;2329.60;;;;;;5010517;28;20089;-74
2021/05/03 03:17:10;;;;;;;3.70;3.17;;;308.10;2304.00;;;;;;5012963;28;20038;-75
2021/05/03 03:19:42;;;;;;;5.35;3.20;;;308.10;2304.00;;;;;;4995121;28;20529;-75
2021/05/03 03:22:09;;;;;;;3.83;3.00;;;308.10;2304.00;;;;;;5014320;28;20432;-75
2021/05/03 03:24:35;;;;;;;3.90;3.20;;;332.80;2329.60;;;;;;5012627;28;20064;-74
2021/05/03 03:27:01;;;;;;;3.92;3.35;;;332.80;2329.60;;;;;;5007482;28;20026;-75
2021/05/03 03:29:28;;;;;;;3.25;2.95;;;308.10;2304.00;;;;;;5010460;28;20022;-74
2021/05/03 03:31:54;;;;;;;4.07;3.20;;;308.00;2304.00;;;;;;5010504;28;20022;-74
2021/05/03 03:34:20;;;;;;;7.07;3.30;;;307.90;2304.00;;;;;;5011378;28;20088;-74
2021/05/03 03:36:47;;;;;;;3.75;3.35;;;307.80;2304.00;;;;;;5006811;28;20507;-71
2021/05/03 03:39:13;;;;;;;5.20;3.50;;;307.70;2304.00;;;;;;5007581;28;20071;-74
2021/05/03 03:41:38;;;;;;;4.53;3.25;;;307.80;2304.00;;;;;;5003041;28;20026;-70
2021/05/03 03:44:05;;;;;;;4.65;3.00;;;307.90;2304.00;;;;;;5010738;28;20037;-74
2021/05/03 03:46:31;;;;;;;3.78;3.38;;;307.90;2304.00;;;;;;5010334;28;20509;-74
2021/05/03 03:48:57;;;;;;;7.13;2.97;;;307.90;2304.00;;;;;;5005387;28;20018;-74
2021/05/03 03:51:24;;;;;;;3.40;2.97;;;308.00;2304.00;;;;;;4991508;28;20045;-74
2021/05/03 03:53:54;;;;;;;3.78;3.30;;;;;;;;;;5010328;28;20026;-74
2021/05/03 03:56:22;;;;;;;3.95;3.05;;;;;;;;;;5009499;28;20363;-74
2021/05/03 03:58:49;;;;;;;4.85;3.55;;;;;;;;;;5004487;28;20022;-74
2021/05/03 04:01:15;;;;;;;3.95;3.40;;;;;;;;;;5008474;28;20076;-75
2021/05/03 04:03:50;;;;;;;3.40;3.10;;;;;;;;;;5013032;28;20029;-74
2021/05/03 04:06:21;;;;;;;3.80;3.40;;;;;;;;;;5009608;28;20099;-74
2021/05/03 04:09:12;;;;;;;3.97;3.10;;;;;;;;;;5007969;28;20471;-75
2021/05/03 04:27:35;;;;;;;4.32;3.28;;;;;;;;;;5006256;28;20053;-72
2021/05/03 04:30:01;;;;;;;4.00;3.53;;;;;;;;;;5013960;28;20018;-73
2021/05/03 04:32:29;;;;;;;3.72;3.35;;;;;;;;;;5008519;28;20037;-73
2021/05/03 04:34:55;;;;;;;4.15;3.50;;;;;;;;;;5010648;28;20032;-74
2021/05/03 04:37:21;;;;;;;4.00;3.60;;;;;;;;;;5012302;28;20078;-73
2021/05/03 04:39:47;;;;;;;4.30;3.33;;;;;;;;;;5011948;28;20092;-74
2021/05/03 04:42:14;;;;;;;4.75;3.42;;;;;;;;;;5010716;28;20030;-73
2021/05/03 04:44:40;;;;;;;4.00;3.45;;;;;;;;;;5006545;28;20084;-74
2021/05/03 04:47:06;;;;;;;3.88;3.38;;;;;;;;;;5011963;28;20050;-75
2021/05/03 04:49:32;;;;;;;4.72;3.35;;;;;;;;;;5009158;28;20034;-74
2021/05/03 04:51:58;;;;;;;5.63;3.55;;;;;;;;;;5018197;28;20076;-76
2021/05/03 04:54:24;;;;;;;4.03;3.42;;;;;;;;;;5015593;28;20087;-69
2021/05/03 04:56:52;;;;;;;9.52;6.57;;;;;;;;;;5014369;28;20037;-72
2021/05/03 04:59:19;;;;;;;8.93;6.32;;;;;;;;;;5020839;28;20530;-76
2021/05/03 05:01:45;;;;;;;8.85;5.45;;;;;;;;;;5011976;28;20022;-74
2021/05/03 05:04:11;;;;;;;9.13;6.13;;;;;;;;;;5012757;28;20037;-72
2021/05/03 05:06:37;;;;;;;7.15;4.88;;;;;;;;;;5013003;28;20080;-74
2021/05/03 05:09:23;;;;;;;6.07;5.25;;;;;;;;;;5014730;28;20030;-76
2021/05/03 05:11:49;;;;;;;13.05;7.70;;;;;;;;;;5020893;28;20061;-76
2021/05/03 05:14:15;;;;;;;12.43;7.80;;;;;;;;;;5018857;28;20026;-75
2021/05/03 05:16:41;;;;;;;10.00;6.10;;;;;;;;;;5021318;28;20058;-76
2021/05/03 05:19:08;;;;;;;6.65;4.78;;;;;;;;;;5021553;28;20041;-76
2021/05/03 05:21:36;;;;;;;7.93;6.53;;;;;;;;;;5031133;28;20502;-76
2021/05/03 05:24:05;;;;;;;7.40;4.57;;;;;;;;;;5028259;28;20026;-74
2021/05/03 05:26:34;;;;;;;4.40;4.00;;;;;;;;;;5025769;28;20464;-76
2021/05/03 05:29:01;;;;;;;5.45;3.80;;;;;;;;;;5023556;28;20022;-77
2021/05/03 05:31:27;;;;;;;6.10;4.07;;;;;;;;;;5021939;28;20026;-75
2021/05/03 05:33:53;;;;;;;4.40;4.00;;;;;;;;;;5016653;28;20059;-76
2021/05/03 05:36:19;;;;;;;6.50;4.40;;;;;;;;;;5016744;28;20030;-76
2021/05/03 05:38:45;;;;;;;6.32;4.13;;;;;;;;;;4997201;28;20057;-76
2021/05/03 05:41:13;;;;;;;6.68;4.60;;;;;;;;;;5021636;28;20025;-76
2021/05/03 05:43:40;;;;;;;5.07;4.50;;;;;;;;;;5023741;28;20044;-73
2021/05/03 05:46:06;;;;;;;7.25;4.45;;;;;;;;;;5008425;28;20081;-73
2021/05/03 05:48:32;;;;;;;5.65;4.60;;;;;;;;;;5009436;28;20029;-73
2021/05/03 05:50:58;;;;;;;5.43;4.90;;;;;;;;;;5015929;28;20069;-74
2021/05/03 05:53:24;;;;;;;5.88;5.15;;;;;;;;;;5012913;28;20029;-75
2021/05/03 05:55:50;;;;;;;6.97;5.20;;;;;;;;;;5014134;28;20073;-74
2021/05/03 05:58:33;;;;;;;6.55;5.00;;;;;;;;;;5033018;28;20037;-78
2021/05/03 06:01:17;;;;;;;7.40;5.20;;;;;;;;;;5039589;28;20038;-76
2021/05/03 06:03:43;;;;;;;8.68;5.18;;;;;;;;;;5017096;28;20127;-76
2021/05/03 06:06:09;;;;;;;5.28;4.68;;;;;;;;;;5010138;28;20134;-75
2021/05/03 06:08:35;;;;;;;6.72;5.53;;;;;;;;;;5008036;28;20057;-76
2021/05/03 06:13:52;;;;;;;6.20;5.60;;;;;;;;;;5326089;23;20054;-79
2021/05/03 06:16:18;;;;;;;7.90;6.10;;;;;;;;;;5020969;28;20052;-76
2021/05/03 06:18:44;;;;;;;7.70;5.90;;;;;;;;;;5017473;28;20026;-76
2021/05/03 06:21:10;;;;;;;7.47;6.72;;;;;;;;;;5027113;28;20125;-74
2021/05/03 06:23:36;;;;;;;7.57;6.72;;;;;;;;;;5016214;28;20479;-75
2021/05/03 06:26:03;;;;;;;9.32;6.97;;;;;;;;;;5026987;28;20034;-73
2021/05/03 06:28:29;;;;;;;8.98;8.07;;;;;;;;;;5021507;28;20026;-77
2021/05/03 06:30:57;;;;;;;12.60;9.80;;;;;;;;;;5049374;28;20036;-78
2021/05/03 06:33:23;;;;;;;60.97;43.85;;;;;;;;;;5023042;28;20084;-70
2021/05/03 06:35:50;;;;;;;72.88;48.30;;;;;;;;;;5026367;28;20391;-71
2021/05/03 06:38:16;;;;;;;14.18;10.82;;;;;;;;;;5016148;28;20124;-72
2021/05/03 06:40:42;;;;;;;15.07;13.35;;;;;;;;;;5021751;28;20034;-71
2021/05/03 06:43:08;;;;;;;15.82;14.02;;;;;;;;;;5026743;28;20055;-71
2021/05/03 06:45:34;;;;;;;13.48;12.10;;;;;;;;;;5021509;28;20022;-74
2021/05/03 06:48:05;;;;;;;9.18;8.25;;;;;;;;;;5032033;28;20087;-73
2021/05/03 06:50:33;;;;;;;8.35;7.15;;;;;;;;;;5040956;28;20467;-74
2021/05/03 06:53:01;;;;;;;8.23;6.90;;;;;;;;;;5040894;28;20052;-75
2021/05/03 06:55:27;;;;;;;10.25;7.60;;;;;;;;;;5050724;28;20017;-75
2021/05/03 06:57:54;;;;;;;7.28;6.57;;;;;;;;;;5041066;28;20021;-76
2021/05/03 07:00:20;;;;;;;8.30;7.30;;;;;;;;;;5053199;28;20423;-77
2021/05/03 07:02:46;;;;;;;9.07;7.97;;;;;;;;;;5045382;28;20030;-77
2021/05/03 07:05:14;;;;;;;9.45;7.90;;;;;;;;;;5038059;28;20033;-76
2021/05/03 07:07:40;;;;;;;9.15;7.93;;;;;;;;;;5030703;28;20037;-77
2021/05/03 07:10:07;;;;;;;8.57;7.68;;;;;;;;;;5038916;28;20018;-77
2021/05/03 07:12:35;;;;;;;8.60;7.70;;;;;;;;;;5029385;28;20084;-74
2021/05/03 07:15:01;;;;;;;10.23;7.50;;;;;;;;;;5023964;28;20388;-73
2021/05/03 07:17:28;;;;;;;9.00;7.20;;;;;;;;;;5022306;28;20128;-72
2021/05/03 07:20:12;;;;;;;9.05;7.70;;;;;;;;;;5038385;28;20056;-78
2021/05/03 07:25:19;;;;;;;8.10;7.30;;;;;;;;;;5058589;28;20084;-79
2021/05/03 07:27:45;;;;;;;9.25;7.57;;;;;;;;;;5058874;28;20017;-70
2021/05/03 07:30:13;;;;;;;8.35;7.55;;;;;;;;;;5052135;28;20125;-72
2021/05/03 07:32:39;;;;;;;10.25;8.38;;;;;;;;;;5052860;28;20021;-71
2021/05/03 07:35:07;;;;;;;9.57;7.68;;;;;;;;;;5050769;28;20740;-71
2021/05/03 07:37:33;;;;;;;8.90;7.70;;;;;;;;;;5050734;28;20033;-70
2021/05/03 07:39:59;;;;;;;11.98;6.65;;;;;;;;;;5050290;28;20052;-71
2021/05/03 07:42:25;;;;;;;11.02;7.40;;;;;;;;;;5051733;28;20482;-72
2021/05/03 07:44:51;;;;;;;10.60;6.25;;;;;;;;;;5052347;28;20025;-70
2021/05/03 07:47:18;;;;;;;7.57;6.10;;;;;;;;;;5052083;28;20048;-71
2021/05/03 07:49:44;;;;;;;7.25;6.30;;;;;;;;;;5048650;28;20021;-71
2021/05/03 07:52:10;;;;;;;8.23;6.72;;;;;;;;;;5050147;28;20029;-71
2021/05/03 07:54:36;;;;;;;6.95;5.82;;;;;;;;;;5025664;28;20033;-75
2021/05/03 07:57:03;;;;;;;6.43;5.70;;;;;;;;;;5045604;28;20044;-70
2021/05/03 07:59:29;;;;;;;8.20;6.72;;;;;;;;;;5046223;28;20064;-71
2021/05/03 08:01:55;;;;;;;8.80;7.28;;;;;;;;;;5047750;28;20410;-70
2021/05/03 08:04:21;;;;;;;8.50;6.70;;;;;;;;;;5043219;28;20070;-70
2021/05/03 08:06:48;;;;;;;9.18;6.65;;;;;;;;;;5029785;28;20033;-71
2021/05/03 08:09:14;;;;;;;7.78;6.15;;;;;;;;;;5048726;28;20017;-72
2021/05/03 08:11:44;;;;;;;16.77;6.32;;;;;;;;;;5049053;28;20025;-72
2021/05/03 08:14:12;;;;;;;9.82;6.00;;;;;;;;;;5048784;28;20025;-71
2021/05/03 08:16:50;;;;;;;10.45;7.00;;;;;;;;;;5048182;28;20075;-76
2021/05/03 08:19:17;;;;;;;10.55;7.90;;;;;;;;;;5066933;28;20063;-78
2021/05/03 08:21:48;;;;;;;10.85;7.30;;;;;;;;;;5040912;28;20031;-74
2021/05/03 08:24:15;;;;;;;11.20;7.65;;;;;;;;;;5055312;28;20051;-75
2021/05/03 08:26:43;;;;;;;12.43;7.82;;;;;;;;;;5042602;28;20025;-76
2021/05/03 08:29:09;;;;;;;16.15;9.57;;;;;;;;;;5049464;28;20025;-70
2021/05/03 08:31:35;;;;;;;14.95;10.10;;;;;;;;;;5050349;28;20021;-70
2021/05/03 08:34:02;;;;;;;18.77;9.98;;;;;;;;;;5048688;28;20025;-74
2021/05/03 08:36:28;;;;;;;13.88;9.05;;;;;;;;;;5050910;28;20086;-72
2021/05/03 08:38:54;;;;;;;16.42;8.73;;;;;;;;;;5048204;28;20028;-72
2021/05/03 08:41:21;;;;;;;11.25;8.30;;;;;;;;;;5046353;28;20033;-75
2021/05/03 08:43:49;;;;;;;11.00;7.50;;;;;;;;;;5063271;28;20024;-75
2021/05/03 08:46:26;;;;;;;12.63;7.80;;;;;;;;;;5062588;28;20100;-74
2021/05/03 08:51:39;;;;;;;10.30;6.72;;;;;;;;;;5060019;28;20484;-74
2021/05/03 08:54:13;;;;;;;8.18;6.32;;;;;;;;;;5047399;28;20029;-74
2021/05/03 08:56:39;;;;;;;9.88;6.03;;;;;;;;;;5057527;28;20033;-77
2021/05/03 08:59:05;;;;;;;8.90;5.70;;;;;;;;;;5045458;28;20040;-76
2021/05/03 09:01:31;;;;;;;8.10;5.07;;;;;;;;;;5036949;28;20046;-75
2021/05/03 09:03:58;;;;;;;5.95;4.55;;;;;;;;;;5048636;28;20017;-75
2021/05/03 09:06:24;;;;;;;7.85;4.32;;;;;;;;;;5052597;28;20057;-73
2021/05/03 09:09:00;;;;;;;8.57;4.35;;;;;;;;;;5047291;28;20411;-73
2021/05/03 09:11:26;;;;;;;8.98;4.32;;;;;;;;;;5055081;28;20044;-72
2021/05/03 09:13:52;;;;;;;9.27;4.55;;;;;;;;;;5045972;28;20037;-72
2021/05/03 09:16:20;;;;;;;6.47;4.45;;;;;;;;;;5049749;28;20045;-70
2021/05/03 09:18:46;;;;;;;7.32;4.43;;;;;;;;;;5052868;28;20025;-71
2021/05/03 09:21:22;;;;;;;5.97;4.60;;;;;;;;;;5051185;28;20087;-70
2021/05/03 09:24:09;;;;;;;5.95;4.63;;;;;;;;;;5048323;28;20033;-70
2021/05/03 09:26:56;;;;;;;5.22;4.20;;;;;;;;;;5052910;28;20036;-70
2021/05/03 09:29:33;;;;;;;6.57;4.55;;;;;;;;;;5032490;28;20056;-71
2021/05/03 09:32:01;;;;;;;4.63;3.88;;;;;;;;;;5044458;28;20613;-71
2021/05/03 09:34:28;;;;;;;7.32;4.50;;;;;;;;;;5050946;28;20051;-73
2021/05/03 09:36:56;;;;;;;8.23;5.47;;;;;;;;;;5050170;28;20060;-73
2021/05/03 09:39:31;;;;;;;9.45;4.20;;;;;;;;;;5053544;28;20025;-73
2021/05/03 09:41:57;;;;;;;5.90;4.20;;;;;;;;;;5046663;28;20025;-72
2021/05/03 09:44:23;;;;;;;7.22;4.38;;;;;;;;;;5047739;28;20039;-71
2021/05/03 09:46:51;;;;;;;21.02;5.35;;;;;;;;;;5043530;28;20386;-71
2021/05/03 09:49:18;;;;;;;8.40;4.18;;;;;;;;;;5052389;28;20040;-73
2021/05/03 09:51:56;;;;;;;9.35;4.60;;;;;;;;;;5049276;28;20505;-74
2021/05/03 09:54:25;;;;;;;6.00;4.57;;;;;;;;;;5048830;28;20075;-71
2021/05/03 09:56:54;;;;;;;7.35;4.82;;;;;;;;;;5028629;28;20102;-71
2021/05/03 09:59:25;;;;;;;5.75;4.03;;;;;;;;;;5048526;28;20359;-73
2021/05/03 10:02:11;;;;;;;4.70;3.85;;;;;;;;;;5054473;28;20029;-76
2021/05/03 10:05:21;;;;;;;8.00;4.15;;;;;;;;;;5069894;28;20480;-78
2021/05/03 10:07:55;;;;;;;8.32;4.57;;;;;;;;;;5064457;28;20021;-75
2021/05/03 10:10:35;;;;;;;18.45;4.90;;;;;;;;;;5038491;28;20080;-76
2021/05/03 10:13:01;;;;;;;6.78;4.80;;;;;;;;;;5055520;28;20021;-76
2021/05/03 10:15:32;;;;;;;6.50;4.25;;;;;;;;;;5055502;28;20055;-78
2021/05/03 10:18:07;;;;;;;7.78;4.72;;;;;;;;;;5057179;28;20046;-78
2021/05/03 10:20:38;;;;;;;9.30;5.65;;;;;;;;;;5066704;28;20044;-78
2021/05/03 10:23:04;;;;;;;8.15;4.95;;;;;;;;;;5056788;28;20093;-78
2021/05/03 10:25:31;;;;;;;11.57;5.07;;;;;;;;;;5037107;28;20028;-77
2021/05/03 10:28:01;;;;;;;6.80;4.80;;;;;;;;;;5064197;28;20020;-76
2021/05/03 10:30:42;;;;;;;5.93;4.10;;;;;;;;;;5071381;28;20012;-78
2021/05/03 10:33:39;;;;;;;9.25;4.88;;;;;;;;;;5076335;28;20033;-77
2021/05/03 10:36:06;;;;;;;4.82;3.80;;;;;;;;;;5053193;28;20535;-76
2021/05/03 10:38:41;;;;;;;6.93;4.00;;;;;;;;;;5060920;28;20009;-79
2021/05/03 10:41:27;;;;;;;6.40;3.65;;;;;;;;;;5000756;28;20049;-77
2021/05/03 10:44:10;;;;;;;6.38;4.38;;;;;;;;;;4991581;28;20121;-75
2021/05/03 10:49:20;;;;;;;6.03;4.07;;;;;;;;;;4999478;28;20150;-74
2021/05/03 10:51:59;;;;;;;5.30;4.03;;;;;;;;;;5003601;28;20030;-74
2021/05/03 10:54:50;;;;;;;9.65;5.32;;;;;;;;;;4988673;28;20085;-76
2021/05/03 10:57:37;;;;;;;10.45;5.20;;;;;;;;;;4997925;28;20050;-78
2021/05/03 11:00:23;;;;;;;7.00;4.80;;;;;;;;;;4927719;29;20032;-77
2021/05/03 11:02:49;;;;;;;10.50;4.70;;;;;;;;;;4879361;29;20069;-77
2021/05/03 11:05:32;;;;;;;6.97;5.07;;;;;;;;;;4902090;29;20588;-78
2021/05/03 11:08:04;;;;;;;6.72;4.43;;;;;;;;;;4930132;29;20078;-70
2021/05/03 11:11:02;;;;;;;5.53;4.28;;;;;;;;;;4937888;29;20036;-70
2021/05/03 11:16:22;;;;;;;6.05;4.80;;;;;;;;;;4854499;29;20032;-70
2021/05/03 11:18:48;;;;;;;7.78;4.90;;;;;;;;;;4853456;29;20513;-72
2021/05/03 11:21:16;;;;;;;7.55;5.22;;;;;;;;;;4858118;29;20033;-73
2021/05/03 11:23:42;;;;;;;10.30;5.43;;;;;;;;;;4853147;29;20131;-71
2021/05/03 11:26:31;;;;;;;7.60;4.95;;;;;;;;;;4856273;29;20052;-75
2021/05/03 11:29:08;;;;;;;6.00;4.90;;;;;;;;;;4856303;29;20041;-69
2021/05/03 11:31:35;;;;;;;9.52;5.00;;;;;;;;;;4850877;29;20041;-70
2021/05/03 11:34:11;;;;;;;5.90;4.68;;;;;;;;;;4887784;29;20051;-69
2021/05/03 11:36:43;;;;;;;9.30;5.63;;;;;;;;;;4914431;29;20059;-72
2021/05/03 11:39:22;;;;;;;8.48;5.07;;;;;;;;;;4924634;29;20024;-72
2021/05/03 11:42:11;;;;;;;12.68;6.35;;;;;;;;;;4933660;29;20051;-70
2021/05/03 11:44:52;;;;;;;9.70;4.88;;;;;;;;;;4931440;29;20043;-70
2021/05/03 11:47:33;;;;;;;6.72;4.57;;;;;;;;;;4925638;29;20051;-70
2021/05/03 11:49:59;;;;;;;7.38;4.63;;;;;;;;;;5033824;28;20483;-73
2021/05/03 11:52:26;;;;;;;9.73;4.43;;;;;;;;;;5049877;28;20079;-71
2021/05/03 11:54:54;;;;;;;7.65;4.60;;;;;;;;;;5051962;28;20032;-70
2021/05/03 11:57:20;;;;;;;6.80;4.55;;;;;;;;;;5047647;28;20028;-69
2021/05/03 11:59:47;;;;;;;8.15;5.55;;;;;;;;;;5049034;28;20108;-71
2021/05/03 12:02:14;;;;;;;9.13;4.65;;;;;;;;;;5050426;28;20029;-71
2021/05/03 12:04:44;;;;;;;25.45;5.28;;;;;;;;;;5052153;28;20096;-69
2021/05/03 12:07:18;;;;;;;8.30;5.95;;;;;;;;;;5030787;28;20116;-70
2021/05/03 12:09:45;;;;;;;7.35;5.03;;;;;;;;;;5046002;28;20024;-72
2021/05/03 12:12:11;;;;;;;6.88;3.88;;;;;;;;;;5049019;28;20098;-73
2021/05/03 12:14:41;;;;;;;4.35;3.50;;;;;;;;;;5051143;28;20033;-70
2021/05/03 12:17:34;;;;;;;6.05;3.95;;;;;;;;;;5046167;28;20033;-70
2021/05/03 12:20:03;;;;;;;6.25;4.35;;;;;;;;;;5051572;28;20044;-70
2021/05/03 12:22:29;;;;;;;5.55;4.53;;;;;;;;;;5053537;28;20037;-72
2021/05/03 12:25:02;;;;;;;9.85;4.68;;;;;;;;;;5050154;28;20584;-74
2021/05/03 12:27:32;;;;;;;7.75;3.80;;;;;;;;;;5045241;28;20037;-73
2021/05/03 12:29:58;;;;;;;6.88;4.75;;;;;;;;;;5048204;28;20096;-71
2021/05/03 12:32:29;;;;;;;5.05;4.00;;;;;;;;;;5054628;28;20090;-73
2021/05/03 12:35:14;;;;;;;6.93;4.07;;;;;;;;;;5069314;28;20024;-77
2021/05/03 12:37:44;;;;;;;5.97;4.20;;;;;;;;;;5070749;28;20163;-76
2021/05/03 12:40:10;;;;;;;7.97;3.97;;;;;;;;;;5060518;28;20031;-73
2021/05/03 12:42:36;;;;;;;7.75;4.10;;;;;;;;;;5056953;28;20033;-74
2021/05/03 12:45:13;;;;;;;6.53;3.60;;;;;;;;;;5069318;28;20040;-72
2021/05/03 12:50:56;;;;;;;11.32;6.43;;;;;;;;;;4979492;28;20090;-73
2021/05/03 12:56:27;;;;;;;6.20;3.75;;;;;;;;;;4907908;29;20041;-75
2021/05/03 13:06:55;;;;;;;11.63;3.42;;;;;;;;;;4897200;29;20589;-74
2021/05/03 13:12:23;;;;;;;5.43;3.05;;;;;;;;;;4896362;29;20093;-74
2021/05/03 13:28:59;;;;;;;5.22;3.40;;;;;;;;;;4948960;28;20034;-73
2021/05/03 13:31:26;;;;;;;4.03;3.35;;;;;;;;;;4945056;28;20031;-74
2021/05/03 13:33:52;;;;;;;5.53;3.30;;;;;;;;;;5048209;28;20506;-74
2021/05/03 13:36:18;;;;;;;6.93;3.03;;;;;;;;;;5048950;28;20075;-72
2021/05/03 13:38:46;;;;;;;5.30;3.10;;;;;;;;;;5050415;28;20033;-75
2021/05/03 13:41:12;;;;;;;7.40;3.20;;;;;;;;;;5053967;28;20021;-74
2021/05/03 13:43:38;;;;;;;7.20;3.35;;;;;;;;;;5051457;28;20030;-74
2021/05/03 13:46:06;;;;;;;11.98;3.25;;;;;;;;;;5052719;28;20025;-74
2021/05/03 13:48:32;;;;;;;4.60;3.65;;;;;;;;;;5036548;28;20026;-75
2021/05/03 13:50:58;;;;;;;6.38;4.10;;;;;;;;;;5069121;28;20017;-74
2021/05/03 13:53:25;;;;;;;5.47;3.58;;;;;;;;;;5064292;28;20032;-73
2021/05/03 13:55:54;;;;;;;5.43;3.13;;;;;;;;;;5055491;28;20021;-76
2021/05/03 13:58:22;;;;;;;4.75;3.70;;;;;;;;;;5052943;28;20032;-77
2021/05/03 14:00:48;;;;;;;6.20;3.45;;;;;;;;;;5054115;28;20088;-74
2021/05/03 14:03:14;;;;;;;5.47;3.63;;;;;;;;;;5045610;28;20529;-75
2021/05/03 14:05:43;;;;;;;5.47;3.47;;;;;;;;;;5047766;28;20056;-74
2021/05/03 14:08:09;;;;;;;5.38;3.40;;;;;;;;;;5047233;28;20459;-76
2021/05/03 14:10:37;;;;;;;4.70;3.42;;;;;;;;;;5055907;28;20024;-77
2021/05/03 14:13:05;;;;;;;5.18;3.25;;;;;;;;;;5040396;28;20028;-77
2021/05/03 14:15:34;;;;;;;4.88;3.47;;;;;;;;;;5039857;28;20060;-73
2021/05/03 14:18:01;;;;;;;6.00;3.38;;;;;;;;;;5049585;28;20037;-74
2021/05/03 14:20:27;;;;;;;5.35;3.60;;;;;;;;;;5054798;28;20036;-73
2021/05/03 14:22:55;;;;;;;4.50;3.20;;;;;;;;;;5052243;28;20534;-73
2021/05/03 14:25:22;;;;;;;4.70;2.88;;;;;;;;;;5064816;28;20039;-76
2021/05/03 14:27:54;;;;;;;4.25;3.30;;;;;;;;;;5076594;28;20051;-75
2021/05/03 14:30:40;;;;;;;6.00;3.80;;;;;;;;;;5060127;28;20028;-77
2021/05/03 14:33:26;;;;;;;10.35;3.17;;;;;;;;;;5050580;28;20028;-77
2021/05/03 14:35:55;;;;;;;5.32;2.97;;;;;;;;;;5049117;28;20061;-75
2021/05/03 14:38:21;;;;;;;4.78;3.20;;;;;;;;;;5048804;28;20029;-73
2021/05/03 14:40:48;;;;;;;4.97;3.30;;;;;;;;;;5030651;28;20033;-74
2021/05/03 14:43:14;;;;;;;7.70;3.35;;;;;;;;;;5048156;28;20064;-74
2021/05/03 14:55:47;;;;;;;6.13;2.90;;;;;;;;;;5045642;28;20441;-74
2021/05/03 14:58:13;;;;;;;6.03;3.35;;;;;;;;;;5045298;28;20037;-74
2021/05/03 15:00:40;;;;;;;8.38;3.35;;;;;;;;;;5042545;28;20029;-74
2021/05/03 15:03:08;;;;;;;7.28;3.42;;;;;;;;;;5030325;28;20053;-74
2021/05/03 15:05:37;;;;;;;4.72;3.45;;;;;;;;;;5037604;28;20021;-74
2021/05/03 15:08:04;;;;;;;8.52;3.28;;;;;;;;;;5054943;28;20512;-74
2021/05/03 15:10:30;;;;;;;4.28;3.17;;;;;;;;;;5048241;28;20025;-74
2021/05/03 15:13:07;;;;;;;9.02;3.28;;;;;;;;;;5049277;28;20033;-74
2021/05/03 15:15:45;;;;;;;8.55;4.05;;;;;;;;;;5050502;28;20036;-73
2021/05/03 15:23:06;;;;;;;7.78;3.80;;;;;;;;;;5051241;28;20035;-75